Time;durP1;ratioP1;P1;durP2;ratioP2;P2;SDS_P1;SDS_P2;PMS_P1;PMS_P2;Temp;Humidity;BMP_temperature;BMP_pressure;BME280_temperature;BME280_humidity;BME280_pressure;Samples;Min_cycle;Max_cycle;Signal;HPM_P1;HPM_P2
2022/10/30 00:01:49;;;;;;;38.63;24.67;;;;;;;12.61;97.13;99339.72;2170133;81;20948;-82
2022/10/30 00:04:49;;;;;;;38.95;26.12;;;;;;;12.68;96.70;99340.23;2170821;81;20953;-81
2022/10/30 00:08:08;;;;;;;38.05;24.95;;;;;;;12.67;96.37;99331.94;2169953;82;21040;-82
2022/10/30 00:11:08;;;;;;;37.17;25.32;;;;;;;12.65;96.38;99321.88;2170435;81;20984;-81
2022/10/30 00:14:08;;;;;;;35.75;26.68;;;;;;;12.65;96.37;99338.89;2169255;81;21008;-82
2022/10/30 00:17:27;;;;;;;42.45;27.00;;;;;;;12.70;96.66;99340.25;2169171;82;21467;-81
2022/10/30 00:20:28;;;;;;;34.75;25.40;;;;;;;12.78;96.66;99337.72;2170460;81;21071;-81
2022/10/30 00:23:28;;;;;;;42.98;26.48;;;;;;;12.82;96.41;99332.96;2170415;81;21036;-81
2022/10/30 00:26:30;;;;;;;39.45;26.45;;;;;;;12.84;96.25;99331.23;2170414;81;21356;-82
2022/10/30 00:29:29;;;;;;;43.78;25.88;;;;;;;12.84;96.04;99333.86;2169820;81;20980;-81
2022/10/30 00:32:29;;;;;;;35.70;25.25;;;;;;;12.86;96.10;99336.06;2171639;81;20929;-82
2022/10/30 00:35:30;;;;;;;42.23;27.20;;;;;;;12.88;95.93;99336.95;2171586;81;20932;-82
2022/10/30 00:38:30;;;;;;;38.70;26.73;;;;;;;12.89;95.90;99336.97;2170170;81;20945;-82
2022/10/30 00:41:30;;;;;;;40.90;26.37;;;;;;;12.92;95.81;99334.38;2170309;81;20961;-82
2022/10/30 00:44:49;;;;;;;38.73;25.90;;;;;;;12.91;95.61;99330.00;2170701;82;21368;-82
2022/10/30 00:47:50;;;;;;;41.30;25.72;;;;;;;12.90;95.62;99333.92;2173043;81;20921;-82
2022/10/30 00:50:50;;;;;;;38.00;25.43;;;;;;;12.92;95.83;99313.85;2170055;81;21009;-82
2022/10/30 00:54:09;;;;;;;37.28;25.05;;;;;;;12.91;95.60;99308.16;2170014;82;21392;-83
2022/10/30 00:57:09;;;;;;;35.98;25.48;;;;;;;12.89;95.69;99309.45;2170134;81;20925;-83
2022/10/30 01:00:10;;;;;;;36.88;24.85;;;;;;;12.91;95.60;99308.16;2171189;81;20957;-82
2022/10/30 01:03:10;;;;;;;31.42;24.80;;;;;;;12.88;95.56;99315.56;2171091;82;21325;-83
2022/10/30 01:06:11;;;;;;;35.08;25.72;;;;;;;12.90;95.67;99317.77;2170075;81;20965;-82
2022/10/30 01:09:11;;;;;;;41.02;26.77;;;;;;;12.93;95.76;99330.90;2170054;81;20923;-82
2022/10/30 01:12:11;;;;;;;50.15;27.22;;;;;;;12.96;95.57;99332.23;2169817;81;20945;-82
2022/10/30 01:15:30;;;;;;;38.38;25.97;;;;;;;12.99;95.55;99323.53;2171617;82;21492;-82
2022/10/30 01:18:30;;;;;;;36.58;26.33;;;;;;;13.02;95.42;99313.11;2172250;81;21011;-82
2022/10/30 01:21:31;;;;;;;32.05;24.67;;;;;;;13.03;95.35;99318.80;2172190;81;20937;-82
2022/10/30 01:24:31;;;;;;;37.42;25.82;;;;;;;13.02;95.19;99309.18;2171987;81;21297;-82
2022/10/30 01:27:32;;;;;;;35.25;24.18;;;;;;;13.01;95.11;99300.44;2170603;81;20949;-82
2022/10/30 01:30:32;;;;;;;39.65;25.37;;;;;;;13.03;95.18;99303.07;2170239;81;20972;-82
2022/10/30 01:33:33;;;;;;;34.45;24.95;;;;;;;13.01;95.06;99304.80;2171615;81;21312;-82
2022/10/30 01:36:51;;;;;;;35.05;23.67;;;;;;;13.01;95.06;99297.81;2170210;82;21033;-82
2022/10/30 01:40:10;;;;;;;38.75;26.55;;;;;;;13.01;94.96;99304.80;2169688;82;21024;-82
2022/10/30 01:43:11;;;;;;;37.25;26.10;;;;;;;12.99;95.04;99300.82;2171205;81;21316;-82
2022/10/30 01:46:11;;;;;;;37.63;25.97;;;;;;;13.00;95.03;99301.30;2170163;81;20949;-82
2022/10/30 01:49:12;;;;;;;34.38;24.98;;;;;;;13.02;94.94;99309.18;2170869;80;21032;-82
2022/10/30 01:52:12;;;;;;;42.20;26.93;;;;;;;13.03;95.01;99305.69;2173358;81;20983;-82
2022/10/30 01:55:12;;;;;;;34.27;25.02;;;;;;;13.04;94.95;99303.52;2172319;81;21269;-82
2022/10/30 01:58:31;;;;;;;39.20;26.75;;;;;;;13.03;94.83;99307.87;2171562;82;20992;-82
2022/10/30 02:01:34;;;;;;;39.33;27.30;;;;;;;13.06;94.90;99307.03;2172138;81;20965;-82
2022/10/30 02:04:32;;;;;;;39.75;27.02;;;;;;;13.09;94.91;99305.75;2173358;81;20933;-82
2022/10/30 02:07:51;;;;;;;40.00;26.45;;;;;;;13.08;94.77;99303.56;2172723;82;21016;-82
2022/10/30 02:10:52;;;;;;;40.98;28.12;;;;;;;13.08;94.60;99302.69;2172977;81;20997;-82
2022/10/30 02:13:52;;;;;;;42.73;27.50;;;;;;;13.06;94.67;99293.50;2171173;81;21028;-83
2022/10/30 02:16:52;;;;;;;47.25;27.75;;;;;;;13.06;94.72;99294.80;2172658;81;20937;-83
2022/10/30 02:19:53;;;;;;;41.40;26.52;;;;;;;13.07;94.75;99296.56;2170928;81;20956;-83
2022/10/30 02:22:53;;;;;;;41.85;26.17;;;;;;;13.10;94.55;99287.84;2172675;81;20957;-82
2022/10/30 02:26:12;;;;;;;41.35;25.08;;;;;;;13.09;94.53;99293.95;2169806;82;21349;-83
2022/10/30 02:29:31;;;;;;;40.35;25.23;;;;;;;13.10;94.49;99298.33;2171145;82;21012;-82
2022/10/30 02:32:31;;;;;;;37.93;24.25;;;;;;;13.13;94.65;99301.41;2172227;81;21369;-82
2022/10/30 02:35:34;;;;;;;39.10;24.85;;;;;;;13.15;94.49;99303.61;2170846;81;20933;-82
2022/10/30 02:38:32;;;;;;;38.70;25.45;;;;;;;13.14;94.42;99304.05;2171752;81;20961;-82
2022/10/30 02:41:32;;;;;;;41.08;26.95;;;;;;;13.12;94.29;99299.22;2172269;81;20972;-82
2022/10/30 02:44:33;;;;;;;38.30;27.93;;;;;;;13.11;94.33;99294.84;2170025;82;20992;-82
2022/10/30 02:47:33;;;;;;;40.70;27.67;;;;;;;13.09;94.35;99291.34;2171332;81;21352;-82
2022/10/30 02:50:34;;;;;;;42.15;27.32;;;;;;;13.08;94.41;99301.38;2173153;79;21059;-82
2022/10/30 02:53:34;;;;;;;36.28;24.82;;;;;;;13.08;94.55;99293.51;2171307;81;20972;-82
2022/10/30 02:56:53;;;;;;;37.28;26.23;;;;;;;13.10;94.51;99301.39;2171991;82;20992;-82
2022/10/30 02:59:53;;;;;;;36.53;26.05;;;;;;;13.12;94.60;99295.30;2172185;81;21376;-83
2022/10/30 03:02:54;;;;;;;37.28;25.10;;;;;;;13.12;94.48;99297.91;2171588;81;20953;-82
2022/10/30 03:05:54;;;;;;;36.95;25.37;;;;;;;13.13;94.45;99302.72;2170392;81;20937;-82
2022/10/30 03:08:54;;;;;;;44.03;26.73;;;;;;;13.15;94.45;99307.55;2171662;81;20921;-82
2022/10/30 03:12:13;;;;;;;36.33;25.82;;;;;;;13.17;94.43;99303.23;2170468;82;21357;-82
2022/10/30 03:15:14;;;;;;;40.43;26.50;;;;;;;13.17;94.29;99308.47;2169990;81;21004;-82
2022/10/30 03:18:14;;;;;;;37.25;26.87;;;;;;;13.18;94.39;99311.54;2171600;81;20910;-83
2022/10/30 03:21:33;;;;;;;40.50;23.27;;;;;;;13.20;94.28;99309.38;2171631;82;21025;-82
2022/10/30 03:24:33;;;;;;;37.73;24.87;;;;;;;13.22;94.05;99312.02;2170862;81;20975;-83
2022/10/30 03:27:34;;;;;;;34.03;23.70;;;;;;;13.19;94.10;99307.63;2170881;82;20981;-83
2022/10/30 03:30:35;;;;;;;34.18;23.87;;;;;;;13.18;93.99;99309.80;2172895;81;20984;-83
2022/10/30 03:33:35;;;;;;;39.05;24.75;;;;;;;13.16;93.97;99304.94;2173391;81;20980;-83
2022/10/30 03:36:35;;;;;;;37.23;25.82;;;;;;;13.15;94.11;99301.00;2173266;81;20980;-83
2022/10/30 03:39:54;;;;;;;36.88;25.27;;;;;;;13.14;94.14;99302.73;2171794;82;20989;-82
2022/10/30 03:42:55;;;;;;;38.95;26.37;;;;;;;13.13;94.10;99290.50;2172124;81;21336;-82
2022/10/30 03:45:55;;;;;;;35.98;24.12;;;;;;;13.10;94.04;99286.54;2173158;81;20993;-83
2022/10/30 03:48:55;;;;;;;39.25;24.70;;;;;;;13.06;94.09;99278.20;2172433;81;20930;-82
2022/10/30 03:51:56;;;;;;;38.10;25.85;;;;;;;13.02;94.08;99275.98;2171165;81;20898;-83
2022/10/30 03:54:56;;;;;;;39.83;27.45;;;;;;;12.98;94.17;99279.84;2170481;81;20945;-82
2022/10/30 03:57:57;;;;;;;40.20;26.37;;;;;;;12.94;94.34;99281.98;2171258;81;21325;-82
2022/10/30 04:00:57;;;;;;;41.50;25.40;;;;;;;12.94;94.48;99277.63;2171260;81;20976;-82
2022/10/30 04:04:16;;;;;;;36.70;24.92;;;;;;;12.92;94.47;99271.92;2170263;82;21001;-82
2022/10/30 04:07:35;;;;;;;38.75;24.63;;;;;;;12.92;94.66;99261.45;2170915;82;20981;-82
2022/10/30 04:10:35;;;;;;;37.83;24.70;;;;;;;12.93;94.74;99260.16;2172009;81;20945;-82
2022/10/30 04:13:36;;;;;;;34.60;24.95;;;;;;;12.90;94.64;99261.44;2171271;81;20941;-81
2022/10/30 04:16:36;;;;;;;36.83;25.95;;;;;;;12.89;94.81;99258.37;2172394;81;20969;-81
2022/10/30 04:19:37;;;;;;;36.90;25.02;;;;;;;12.89;94.80;99256.18;2170233;81;21407;-81
2022/10/30 04:22:37;;;;;;;36.20;25.30;;;;;;;12.84;94.76;99256.57;2170403;81;21017;-83
2022/10/30 04:25:56;;;;;;;36.42;25.50;;;;;;;12.81;94.93;99260.04;2171048;82;21372;-84
2022/10/30 04:28:56;;;;;;;31.70;24.23;;;;;;;12.76;94.99;99256.06;2171696;81;20968;-82
2022/10/30 04:31:57;;;;;;;35.45;25.75;;;;;;;12.75;95.06;99256.05;2171543;81;21005;-82
2022/10/30 04:34:57;;;;;;;32.67;23.62;;;;;;;12.73;95.20;99253.42;2173417;81;20944;-82
2022/10/30 04:37:58;;;;;;;40.40;25.55;;;;;;;12.74;95.22;99252.98;2170181;81;20972;-82
2022/10/30 04:40:58;;;;;;;36.88;24.32;;;;;;;12.71;95.29;99257.77;2170333;81;21024;-82
2022/10/30 04:43:58;;;;;;;35.68;23.67;;;;;;;12.69;95.21;99250.32;2170295;81;20968;-81
2022/10/30 04:46:59;;;;;;;35.43;25.05;;;;;;;12.68;95.43;99259.05;2171244;81;20925;-82
2022/10/30 04:50:18;;;;;;;36.53;24.40;;;;;;;12.67;95.46;99259.91;2170448;82;21008;-81
2022/10/30 04:53:19;;;;;;;37.73;27.45;;;;;;;12.64;95.67;99266.42;2171241;81;20984;-82
2022/10/30 04:56:19;;;;;;;38.23;27.27;;;;;;;12.67;95.87;99276.93;2170285;81;20929;-82
2022/10/30 04:59:38;;;;;;;45.52;29.65;;;;;;;12.67;95.85;99287.84;2170572;82;21012;-81
2022/10/30 05:02:38;;;;;;;44.53;29.70;;;;;;;12.67;95.94;99283.48;2171125;81;20961;-80
2022/10/30 05:05:38;;;;;;;46.25;31.40;;;;;;;12.69;95.92;99280.88;2171253;81;20941;-83
2022/10/30 05:08:39;;;;;;;48.85;30.65;;;;;;;12.69;96.00;99296.16;2171804;81;20977;-82
2022/10/30 05:11:39;;;;;;;42.10;27.73;;;;;;;12.72;95.99;99297.50;2170771;81;20949;-82
2022/10/30 05:14:40;;;;;;;37.93;27.05;;;;;;;12.73;95.98;99296.64;2172729;81;20985;-82
2022/10/30 05:17:59;;;;;;;42.58;28.45;;;;;;;12.72;95.72;99306.67;2170851;82;21037;-82
2022/10/30 05:21:18;;;;;;;41.15;30.08;;;;;;;12.71;95.80;99323.25;2166446;82;21068;-82
2022/10/30 05:24:18;;;;;;;44.20;31.40;;;;;;;12.65;95.99;99341.94;2174304;82;20952;-82
2022/10/30 05:27:18;;;;;;;48.02;30.20;;;;;;;12.57;96.14;99339.23;2170345;81;20995;-82
2022/10/30 05:30:19;;;;;;;49.30;31.52;;;;;;;12.51;96.15;99289.84;2170239;81;21356;-82
2022/10/30 05:33:19;;;;;;;52.03;28.75;;;;;;;12.45;96.12;99281.48;2172188;81;20982;-81
2022/10/30 05:36:19;;;;;;;45.33;27.42;;;;;;;12.39;96.14;99275.75;2170445;81;20913;-82
2022/10/30 05:39:38;;;;;;;42.65;28.92;;;;;;;12.32;96.29;99290.06;2170521;82;21083;-84
2022/10/30 05:42:39;;;;;;;41.13;28.92;;;;;;;12.28;96.47;99289.15;2172428;81;20961;-83
2022/10/30 05:45:39;;;;;;;45.28;28.12;;;;;;;12.24;96.49;99301.75;2171427;81;21422;-84
2022/10/30 05:48:59;;;;;;;45.28;29.00;;;;;;;12.19;96.49;99320.88;2171180;82;21027;-83
2022/10/30 05:51:58;;;;;;;48.87;29.80;;;;;;;12.20;96.84;99323.94;2173288;81;20988;-83
2022/10/30 05:54:59;;;;;;;57.40;28.65;;;;;;;12.24;96.86;99316.14;2172763;81;20922;-82
2022/10/30 05:57:59;;;;;;;65.12;27.85;;;;;;;12.25;96.53;99323.14;2172282;81;20958;-83
2022/10/30 06:01:00;;;;;;;53.42;25.97;;;;;;;12.25;96.50;99319.22;2172515;81;20941;-84
2022/10/30 06:04:00;;;;;;;60.05;27.58;;;;;;;12.28;96.30;99311.40;2172715;81;21376;-82
2022/10/30 06:07:19;;;;;;;45.65;25.48;;;;;;;12.29;96.16;99305.30;2172529;82;21451;-82
2022/10/30 06:10:24;;;;;;;51.23;27.32;;;;;;;12.33;96.27;99303.60;2170938;81;20976;-83
2022/10/30 06:13:22;;;;;;;41.80;27.22;;;;;;;12.36;96.18;99297.97;2160582;82;21432;-82
2022/10/30 06:16:22;;;;;;;43.05;26.82;;;;;;;12.41;96.50;99293.67;2170643;81;21099;-82
2022/10/30 06:19:22;;;;;;;41.33;24.05;;;;;;;12.48;96.28;99294.62;2172493;81;20989;-82
2022/10/30 06:22:23;;;;;;;36.10;25.35;;;;;;;12.56;96.31;99303.87;2170793;81;20937;-82
2022/10/30 06:25:23;;;;;;;40.48;25.55;;;;;;;12.59;96.21;99299.97;2172172;81;20984;-81
2022/10/30 06:28:24;;;;;;;34.13;26.52;;;;;;;12.64;96.09;99303.09;2172347;81;20933;-83
2022/10/30 06:31:42;;;;;;;43.13;27.73;;;;;;;12.70;96.00;99300.53;2170746;82;21004;-82
2022/10/30 06:35:02;;;;;;;36.68;26.60;;;;;;;12.75;95.89;99293.60;2172147;82;21032;-84
2022/10/30 06:38:03;;;;;;;40.73;27.98;;;;;;;12.82;95.63;99286.69;2173132;81;20960;-84
2022/10/30 06:41:02;;;;;;;42.05;27.73;;;;;;;12.88;95.50;99280.62;2172992;81;21051;-82
2022/10/30 06:44:03;;;;;;;43.55;29.65;;;;;;;12.92;95.30;99267.56;2172657;82;21296;-80
2022/10/30 06:47:03;;;;;;;42.05;29.37;;;;;;;12.96;95.26;99279.83;2172465;81;20993;-82
2022/10/30 06:50:03;;;;;;;37.58;27.15;;;;;;;12.95;94.85;99295.54;2172083;81;20981;-83
2022/10/30 06:53:04;;;;;;;38.28;28.25;;;;;;;12.89;94.73;99298.98;2171739;81;20925;-83
2022/10/30 06:56:04;;;;;;;45.20;30.23;;;;;;;12.85;94.84;99318.15;2170584;81;21357;-83
2022/10/30 06:59:05;;;;;;;54.98;32.58;;;;;;;12.89;94.86;99319.94;2170155;81;20980;-83
2022/10/30 07:02:23;;;;;;;45.33;29.50;;;;;;;13.03;95.08;99320.98;2170125;82;21000;-83
2022/10/30 07:05:42;;;;;;;43.45;29.27;;;;;;;13.24;94.50;99316.84;2169764;82;21020;-83
2022/10/30 07:08:43;;;;;;;39.08;27.65;;;;;;;13.44;94.09;99318.31;2170233;81;20961;-83
2022/10/30 07:11:44;;;;;;;47.50;29.48;;;;;;;13.60;93.10;99312.31;2172284;81;21304;-83
2022/10/30 07:14:44;;;;;;;43.25;27.82;;;;;;;13.76;92.51;99315.91;2171094;81;20965;-82
2022/10/30 07:17:44;;;;;;;42.50;25.90;;;;;;;13.79;91.42;99323.80;2172149;81;21369;-83
2022/10/30 07:20:44;;;;;;;50.85;27.70;;;;;;;13.87;91.39;99323.02;2170040;81;21348;-82
2022/10/30 07:23:45;;;;;;;41.18;26.25;;;;;;;13.87;91.15;99331.30;2170297;81;20933;-83
2022/10/30 07:26:45;;;;;;;47.03;28.40;;;;;;;13.95;90.73;99334.88;2170342;81;20968;-83
2022/10/30 07:29:46;;;;;;;39.75;26.30;;;;;;;13.91;90.49;99347.10;2171711;81;21360;-83
2022/10/30 07:33:05;;;;;;;42.58;27.07;;;;;;;13.96;90.37;99340.14;2170808;82;21068;-80
2022/10/30 07:36:23;;;;;;;41.90;27.87;;;;;;;14.02;90.22;99332.30;2170146;82;21471;-81
2022/10/30 07:39:24;;;;;;;46.75;26.68;;;;;;;14.05;90.00;99324.00;2170222;81;20964;-81
2022/10/30 07:42:24;;;;;;;45.05;27.80;;;;;;;14.03;90.20;99325.30;2169633;81;20997;-83
2022/10/30 07:45:25;;;;;;;38.10;26.87;;;;;;;14.01;89.70;99323.98;2170578;81;21379;-83
2022/10/30 07:48:25;;;;;;;36.70;25.40;;;;;;;13.89;89.58;99326.97;2170691;81;20941;-83
2022/10/30 07:51:26;;;;;;;40.75;26.90;;;;;;;13.85;89.81;99323.84;2171981;81;20961;-83
2022/10/30 07:54:26;;;;;;;33.85;24.30;;;;;;;13.87;90.32;99324.33;2172159;81;20973;-83
2022/10/30 07:57:26;;;;;;;37.80;25.23;;;;;;;14.04;89.88;99324.43;2171524;82;20960;-83
2022/10/30 08:00:46;;;;;;;30.80;23.62;;;;;;;14.15;89.55;99327.11;2172525;82;21008;-83
2022/10/30 08:03:46;;;;;;;58.40;25.97;;;;;;;14.28;89.36;99327.61;2173722;81;20929;-84
2022/10/30 08:06:46;;;;;;;36.30;23.65;;;;;;;14.49;89.58;99324.23;2173561;81;20953;-82
2022/10/30 08:09:47;;;;;;;36.75;24.40;;;;;;;14.72;89.03;99324.31;2173094;81;20929;-82
2022/10/30 08:12:47;;;;;;;34.50;23.62;;;;;;;14.78;87.69;99324.36;2173440;81;20937;-82
2022/10/30 08:15:48;;;;;;;36.20;24.23;;;;;;;14.88;87.31;99312.55;2173558;81;21020;-81
2022/10/30 08:19:06;;;;;;;35.15;24.82;;;;;;;14.97;86.76;99320.89;2173596;82;20996;-82
2022/10/30 08:22:07;;;;;;;32.55;22.77;;;;;;;15.05;86.53;99325.73;2172226;81;21379;-81
2022/10/30 08:25:07;;;;;;;38.88;23.57;;;;;;;15.17;85.58;99329.69;2170518;81;20952;-81
2022/10/30 08:28:26;;;;;;;33.15;23.85;;;;;;;15.24;85.54;99320.92;2170046;82;21001;-82
2022/10/30 08:31:26;;;;;;;33.13;23.47;;;;;;;15.35;85.00;99324.88;2170484;81;21356;-81
2022/10/30 08:34:30;;;;;;;36.45;23.92;;;;;;;15.46;84.73;99321.80;2171825;81;20996;-82
2022/10/30 08:37:27;;;;;;;30.72;22.32;;;;;;;15.57;84.24;99324.44;2173625;81;20906;-82
2022/10/30 08:40:28;;;;;;;29.98;21.40;;;;;;;15.69;83.93;99311.33;2173689;81;20949;-82
2022/10/30 08:43:28;;;;;;;38.02;24.75;;;;;;;15.93;84.13;99313.91;2173810;81;20952;-82
2022/10/30 08:46:47;;;;;;;32.33;21.30;;;;;;;16.06;83.19;99319.16;2172157;82;21039;-83
2022/10/30 08:50:06;;;;;;;29.05;20.12;;;;;;;16.07;82.04;99313.88;2171614;82;21449;-83
2022/10/30 08:53:06;;;;;;;26.05;18.75;;;;;;;16.15;82.40;99305.95;2180728;81;20972;-82
2022/10/30 08:56:07;;;;;;;25.35;20.12;;;;;;;16.37;81.90;99312.90;2180644;82;20921;-82
2022/10/30 08:59:07;;;;;;;28.92;19.90;;;;;;;16.66;80.12;99315.91;2171500;81;20965;-82
2022/10/30 09:02:07;;;;;;;28.23;19.57;;;;;;;16.91;80.72;99305.66;2171330;81;21348;-82
2022/10/30 09:05:08;;;;;;;23.32;17.23;;;;;;;17.14;79.61;99299.78;2170390;81;20957;-82
2022/10/30 09:08:27;;;;;;;28.87;18.05;;;;;;;17.19;78.90;99296.66;2170196;82;21016;-82
2022/10/30 09:11:27;;;;;;;26.93;17.80;;;;;;;17.32;79.02;99298.77;2170199;81;21420;-83
2022/10/30 09:14:27;;;;;;;33.28;18.23;;;;;;;17.44;78.73;99307.05;2171605;81;20930;-82
2022/10/30 09:17:46;;;;;;;26.77;17.20;;;;;;;17.49;77.38;99321.08;2170675;82;21001;-82
2022/10/30 09:20:47;;;;;;;25.43;17.10;;;;;;;17.45;77.25;99324.64;2171618;81;20960;-82
2022/10/30 09:23:47;;;;;;;26.65;18.42;;;;;;;17.47;76.93;99321.55;2171615;82;20945;-82
2022/10/30 09:26:48;;;;;;;35.10;19.25;;;;;;;17.51;77.07;99321.50;2171888;81;21262;-83
2022/10/30 09:29:48;;;;;;;26.02;18.15;;;;;;;17.64;77.20;99330.19;2171106;81;21173;-83
2022/10/30 09:32:48;;;;;;;26.60;17.37;;;;;;;17.73;76.61;99323.54;2171885;81;20967;-82
2022/10/30 09:35:49;;;;;;;28.38;18.45;;;;;;;17.78;76.21;99332.73;2171701;81;20949;-82
2022/10/30 09:38:49;;;;;;;47.80;19.07;;;;;;;17.79;75.61;99324.80;2171137;81;20933;-82
2022/10/30 09:42:09;;;;;;;28.02;18.27;;;;;;;17.70;74.80;99327.97;2171028;82;20989;-84
2022/10/30 09:45:08;;;;;;;21.48;16.85;;;;;;;17.58;75.10;99323.64;2171465;81;20968;-83
2022/10/30 09:48:09;;;;;;;29.18;17.35;;;;;;;17.60;75.06;99327.15;2171280;81;21387;-83
2022/10/30 09:51:09;;;;;;;25.37;16.80;;;;;;;17.57;75.24;99322.34;2170852;81;20993;-83
2022/10/30 09:54:10;;;;;;;22.48;16.32;;;;;;;17.56;74.88;99324.55;2173069;81;20969;-83
2022/10/30 09:57:10;;;;;;;27.15;16.82;;;;;;;17.53;75.41;99325.45;2172716;81;20936;-83
2022/10/30 10:00:29;;;;;;;29.10;16.73;;;;;;;17.50;75.30;99330.31;2170039;82;21008;-83
2022/10/30 10:03:48;;;;;;;26.93;16.60;;;;;;;17.43;75.48;99331.69;2171216;82;20973;-83
2022/10/30 10:06:48;;;;;;;25.32;17.05;;;;;;;17.47;75.80;99327.70;2170800;81;20960;-83
2022/10/30 10:09:49;;;;;;;21.33;15.58;;;;;;;17.62;75.61;99325.38;2170974;81;20941;-84
2022/10/30 10:12:49;;;;;;;24.95;16.45;;;;;;;17.64;75.35;99314.35;2171091;81;20964;-83
2022/10/30 10:15:50;;;;;;;23.57;15.60;;;;;;;17.72;75.48;99309.91;2170279;81;20981;-83
2022/10/30 10:18:50;;;;;;;28.85;16.05;;;;;;;17.89;75.11;99311.50;2170013;81;20969;-83
2022/10/30 10:21:50;;;;;;;25.43;15.60;;;;;;;18.03;75.04;99309.59;2172261;81;20961;-82
2022/10/30 10:24:51;;;;;;;40.17;18.37;;;;;;;18.11;74.36;99302.02;2170262;81;21004;-84
2022/10/30 10:27:52;;;;;;;37.13;17.70;;;;;;;18.26;74.42;99301.44;2171211;81;20992;-83
2022/10/30 10:31:10;;;;;;;29.05;19.52;;;;;;;18.36;73.83;99299.99;2170998;82;21403;-83
2022/10/30 10:34:11;;;;;;;29.60;17.17;;;;;;;18.40;74.16;99300.37;2170170;81;20925;-83
2022/10/30 10:37:11;;;;;;;26.68;17.12;;;;;;;18.53;73.63;99306.83;2170543;81;20937;-83
2022/10/30 10:40:11;;;;;;;28.12;16.62;;;;;;;18.61;73.47;99299.27;2171047;81;20968;-83
2022/10/30 10:43:12;;;;;;;26.52;15.90;;;;;;;18.61;72.50;99303.64;2170464;81;21360;-83
2022/10/30 10:46:12;;;;;;;24.18;16.97;;;;;;;18.60;72.84;99308.05;2169850;81;21005;-83
2022/10/30 10:49:31;;;;;;;28.23;18.82;;;;;;;18.55;71.80;99299.75;2169946;82;20981;-83
2022/10/30 10:52:50;;;;;;;25.45;17.85;;;;;;;18.42;72.34;99297.72;2169987;82;21043;-83
2022/10/30 10:55:50;;;;;;;30.23;18.52;;;;;;;18.38;72.48;99303.94;2171071;81;20966;-83
2022/10/30 10:58:51;;;;;;;24.65;17.12;;;;;;;18.42;72.82;99303.88;2172143;81;20996;-83
2022/10/30 11:01:51;;;;;;;29.67;17.95;;;;;;;18.50;72.36;99302.91;2169890;81;21345;-83
2022/10/30 11:04:52;;;;;;;27.45;17.10;;;;;;;18.61;72.26;99304.96;2171457;81;20960;-82
2022/10/30 11:07:52;;;;;;;30.90;15.98;;;;;;;18.69;72.00;99309.73;2171795;81;20929;-83
2022/10/30 11:10:52;;;;;;;30.32;16.32;;;;;;;18.74;71.45;99305.25;2172623;81;20929;-83
2022/10/30 11:14:11;;;;;;;26.35;16.48;;;;;;;18.78;71.92;99301.22;2171122;82;21037;-83
2022/10/30 11:17:12;;;;;;;23.98;16.90;;;;;;;18.88;71.52;99300.65;2172255;81;21403;-83
2022/10/30 11:20:12;;;;;;;25.45;16.52;;;;;;;18.95;71.27;99302.75;2171806;81;20968;-82
2022/10/30 11:23:13;;;;;;;27.05;16.57;;;;;;;18.98;71.04;99299.62;2171320;81;20965;-82
2022/10/30 11:26:13;;;;;;;24.07;14.53;;;;;;;19.07;70.96;99295.95;2171602;82;20973;-82
2022/10/30 11:29:13;;;;;;;22.55;14.28;;;;;;;19.16;70.74;99287.91;2171112;81;21329;-83
2022/10/30 11:32:14;;;;;;;28.12;14.55;;;;;;;19.26;70.78;99284.67;2170147;81;20913;-82
2022/10/30 11:35:32;;;;;;;19.77;14.07;;;;;;;19.32;69.49;99272.66;2170213;82;20989;-82
2022/10/30 11:38:33;;;;;;;24.75;13.30;;;;;;;19.25;69.03;99268.36;2170306;81;21093;-82
2022/10/30 11:41:33;;;;;;;28.10;13.98;;;;;;;19.21;69.68;99267.54;2170985;81;21276;-83
2022/10/30 11:44:52;;;;;;;25.10;14.85;;;;;;;19.19;70.21;99265.37;2171173;82;20996;-83
2022/10/30 11:47:53;;;;;;;22.62;14.68;;;;;;;19.17;70.23;99263.20;2169864;81;20997;-83
2022/10/30 11:50:53;;;;;;;27.87;15.28;;;;;;;19.19;69.46;99265.81;2170852;81;21305;-83
2022/10/30 11:53:53;;;;;;;24.75;14.38;;;;;;;19.26;69.39;99270.11;2170158;81;20977;-83
2022/10/30 11:56:54;;;;;;;26.62;15.05;;;;;;;19.29;69.62;99264.31;2169726;81;20981;-83
2022/10/30 11:59:54;;;;;;;20.72;13.32;;;;;;;19.39;69.88;99257.09;2170317;81;21325;-83
2022/10/30 12:03:17;;;;;;;17.32;13.22;;;;;;;19.47;70.06;99261.80;2170084;82;21048;-83
2022/10/30 12:06:35;;;;;;;30.15;13.85;;;;;;;19.42;69.52;99266.31;2162758;82;21040;-82
2022/10/30 12:09:35;;;;;;;20.23;13.22;;;;;;;19.31;69.84;99257.22;2170414;81;20925;-83
2022/10/30 12:12:54;;;;;;;20.32;12.95;;;;;;;19.20;69.51;99255.66;2169338;82;21009;-82
2022/10/30 12:15:54;;;;;;;22.90;14.43;;;;;;;19.16;70.64;99244.25;2170094;81;20945;-82
2022/10/30 12:18:56;;;;;;;29.92;13.78;;;;;;;19.19;70.67;99232.73;2171856;81;21499;-82
2022/10/30 12:22:00;;;;;;;22.15;12.85;;;;;;;19.13;70.18;99236.81;2170709;81;21341;-83
2022/10/30 12:24:59;;;;;;;19.62;13.35;;;;;;;19.00;70.46;99243.59;2171893;81;20990;-83
2022/10/30 12:28:02;;;;;;;20.48;13.68;;;;;;;18.86;70.75;99248.22;2170144;82;21018;-83
2022/10/30 12:31:03;;;;;;;29.15;13.85;;;;;;;18.81;71.21;99244.77;2171512;81;20964;-83
2022/10/30 12:34:03;;;;;;;25.37;13.48;;;;;;;18.71;71.53;99248.45;2171196;81;20925;-83
2022/10/30 12:37:04;;;;;;;20.88;13.13;;;;;;;18.65;71.58;99251.18;2170946;81;20933;-83
2022/10/30 12:40:22;;;;;;;22.77;13.60;;;;;;;18.56;72.16;99248.63;2169434;82;21050;-83
2022/10/30 12:43:41;;;;;;;29.12;13.28;;;;;;;18.49;72.54;99240.36;2169597;82;21020;-81
2022/10/30 12:46:41;;;;;;;20.20;13.88;;;;;;;18.47;72.94;99232.45;2170700;81;21095;-81
2022/10/30 12:49:42;;;;;;;23.18;13.58;;;;;;;18.50;73.03;99233.73;2170177;81;21383;-81
2022/10/30 12:52:44;;;;;;;24.32;13.10;;;;;;;18.49;73.10;99228.02;2168961;81;21051;-82
2022/10/30 12:55:43;;;;;;;17.60;12.78;;;;;;;18.44;73.25;99218.83;2168791;81;20977;-82
2022/10/30 12:58:43;;;;;;;21.45;13.20;;;;;;;18.46;73.41;99221.45;2170334;81;20984;-83
2022/10/30 13:01:43;;;;;;;19.62;12.75;;;;;;;18.50;73.63;99218.31;2171180;81;21318;-83
2022/10/30 13:04:44;;;;;;;27.00;14.38;;;;;;;18.54;73.30;99218.70;2169953;81;20958;-83
2022/10/30 13:08:03;;;;;;;20.72;14.47;;;;;;;18.49;73.44;99219.21;2170100;82;21440;-83
2022/10/30 13:11:03;;;;;;;32.13;13.38;;;;;;;18.51;73.71;99220.06;2170321;81;20941;-83
2022/10/30 13:14:04;;;;;;;20.08;13.25;;;;;;;18.55;73.97;99221.77;2171310;81;20937;-83
2022/10/30 13:17:04;;;;;;;25.60;13.98;;;;;;;18.60;74.94;99226.55;2171079;81;21432;-83
2022/10/30 13:20:04;;;;;;;21.33;13.85;;;;;;;18.56;73.83;99220.42;2171226;81;21043;-83
2022/10/30 13:23:05;;;;;;;22.48;14.07;;;;;;;18.63;73.82;99211.98;2171084;81;20918;-83
2022/10/30 13:26:24;;;;;;;34.27;13.53;;;;;;;18.73;73.64;99214.47;2171000;82;20981;-83
2022/10/30 13:29:24;;;;;;;24.60;14.73;;;;;;;18.91;73.73;99210.67;2171338;81;20929;-83
2022/10/30 13:32:25;;;;;;;25.40;15.03;;;;;;;19.00;73.34;99207.87;2170135;81;20964;-83
2022/10/30 13:35:43;;;;;;;23.27;15.05;;;;;;;19.05;72.49;99207.80;2170818;82;20981;-83
2022/10/30 13:39:02;;;;;;;25.95;14.85;;;;;;;19.00;72.21;99207.87;2170997;82;21048;-83
2022/10/30 13:42:03;;;;;;;25.68;14.38;;;;;;;18.94;72.57;99209.30;2172292;81;21384;-83
2022/10/30 13:45:03;;;;;;;22.87;14.40;;;;;;;18.92;72.88;99213.73;2171888;81;20925;-83
2022/10/30 13:48:22;;;;;;;25.17;14.33;;;;;;;18.88;72.58;99215.13;2160843;82;21388;-83
2022/10/30 13:51:22;;;;;;;27.62;14.98;;;;;;;18.82;72.82;99216.55;2170262;81;20964;-83
2022/10/30 13:54:23;;;;;;;35.55;19.32;;;;;;;18.77;72.87;99213.98;2170733;81;20973;-83
2022/10/30 13:57:23;;;;;;;24.82;14.50;;;;;;;18.75;73.47;99205.19;2170102;81;20972;-84
2022/10/30 14:00:24;;;;;;;25.97;13.48;;;;;;;18.76;73.60;99201.66;2171046;81;20965;-84
2022/10/30 14:03:24;;;;;;;19.27;13.98;;;;;;;18.75;74.15;99193.30;2170131;81;20917;-83
2022/10/30 14:06:43;;;;;;;31.48;14.98;;;;;;;18.76;74.16;99196.36;2170330;82;21035;-83